createdAt,value
2018-09-23T00:00:51.198Z,1011.35
2018-09-23T00:01:59.849Z,1011.31
2018-09-23T00:03:08.756Z,1011.32
2018-09-23T00:04:17.668Z,1011.31
2018-09-23T00:05:26.567Z,1011.28
2018-09-23T00:06:35.473Z,1011.26
2018-09-23T00:07:44.110Z,1011.23
2018-09-23T00:08:52.755Z,1011.22
2018-09-23T00:10:01.396Z,1011.19
2018-09-23T00:11:10.050Z,1011.18
2018-09-23T00:12:18.951Z,1011.14
2018-09-23T00:13:27.601Z,1011.14
2018-09-23T00:14:36.240Z,1011.12
2018-09-23T00:15:44.879Z,1011.07
2018-09-23T00:16:53.797Z,1011.09
2018-09-23T00:18:02.449Z,1011.03
2018-09-23T00:19:11.348Z,1010.99
2018-09-23T00:20:19.986Z,1011
2018-09-23T00:21:28.628Z,1011.02
2018-09-23T00:22:37.272Z,1011.03
2018-09-23T00:23:46.441Z,1011.05
2018-09-23T00:24:55.078Z,1011.09
2018-09-23T00:26:03.987Z,1011.07
2018-09-23T00:27:12.895Z,1011
2018-09-23T00:28:21.540Z,1011.01
2018-09-23T00:29:30.437Z,1010.99
2018-09-23T00:30:39.083Z,1010.96
2018-09-23T00:31:47.993Z,1010.94
2018-09-23T00:32:56.635Z,1011.01
2018-09-23T00:34:05.278Z,1011.03
2018-09-23T00:35:13.916Z,1011.1
2018-09-23T00:36:22.563Z,1011.03
2018-09-23T00:37:31.204Z,1010.99
2018-09-23T00:38:39.846Z,1011.01
2018-09-23T00:39:48.483Z,1011.03
2018-09-23T00:40:57.124Z,1011.02
2018-09-23T00:42:05.765Z,1011.03
2018-09-23T00:43:14.413Z,1011.08
2018-09-23T00:44:23.047Z,1011.11
2018-09-23T00:45:31.691Z,1011.03
2018-09-23T00:46:40.589Z,1011.07
2018-09-23T00:47:49.236Z,1011.07
2018-09-23T00:48:57.874Z,1011.07
2018-09-23T00:50:06.784Z,1011.03
2018-09-23T00:51:15.423Z,1010.96
2018-09-23T00:52:24.318Z,1010.94
2018-09-23T00:53:32.965Z,1010.89
2018-09-23T00:54:41.607Z,1010.89
2018-09-23T00:55:50.247Z,1010.88
2018-09-23T00:56:58.884Z,1010.83
2018-09-23T00:58:07.532Z,1010.84
2018-09-23T00:59:16.174Z,1010.84
2018-09-23T01:00:24.812Z,1010.83
2018-09-23T01:01:33.447Z,1010.84
2018-09-23T01:02:42.102Z,1010.82
2018-09-23T01:03:51.003Z,1010.78
2018-09-23T01:04:59.647Z,1010.75
2018-09-23T01:06:08.279Z,1010.73
2018-09-23T01:07:17.454Z,1010.71
2018-09-23T01:08:26.100Z,1010.65
2018-09-23T01:09:34.742Z,1010.65
2018-09-23T01:10:43.385Z,1010.6
2018-09-23T01:11:52.017Z,1010.59
2018-09-23T01:13:00.663Z,1010.6
2018-09-23T01:14:09.300Z,1010.59
2018-09-23T01:15:18.216Z,1010.58
2018-09-23T01:16:27.110Z,1010.56
2018-09-23T01:17:35.756Z,1010.56
2018-09-23T01:18:44.391Z,1010.55
2018-09-23T01:19:53.043Z,1010.52
2018-09-23T01:21:01.676Z,1010.51
2018-09-23T01:22:10.319Z,1010.48
2018-09-23T01:23:18.959Z,1010.49
2018-09-23T01:24:27.608Z,1010.5
2018-09-23T01:25:36.250Z,1010.48
2018-09-23T01:26:45.149Z,1010.46
2018-09-23T01:27:53.789Z,1010.42
2018-09-23T01:29:02.429Z,1010.43
2018-09-23T01:30:11.082Z,1010.43
2018-09-23T01:31:19.995Z,1010.42
2018-09-23T01:32:28.642Z,1010.38
2018-09-23T01:33:37.275Z,1010.36
2018-09-23T01:34:45.925Z,1010.35
2018-09-23T01:35:54.565Z,1010.32
2018-09-23T01:37:03.209Z,1010.32
2018-09-23T01:38:11.843Z,1010.3
2018-09-23T01:39:20.492Z,1010.23
2018-09-23T01:40:29.129Z,1010.26
2018-09-23T01:41:37.772Z,1010.24
2018-09-23T01:42:46.405Z,1010.2
2018-09-23T01:43:55.316Z,1010.15
2018-09-23T01:45:04.227Z,1010.14
2018-09-23T01:46:13.140Z,1010.09
2018-09-23T01:47:21.784Z,1010.09
2018-09-23T01:48:30.676Z,1010.04
2018-09-23T01:49:39.588Z,1010.02
2018-09-23T01:50:48.231Z,1010.03
2018-09-23T01:51:56.878Z,1010.02
2018-09-23T01:53:05.514Z,1010.02
2018-09-23T01:54:14.159Z,1010.05
2018-09-23T01:55:22.797Z,1010
2018-09-23T01:56:31.450Z,1009.97
2018-09-23T01:57:40.079Z,1009.97
2018-09-23T01:58:48.719Z,1009.95
2018-09-23T01:59:57.360Z,1009.97
2018-09-23T02:01:06.011Z,1009.97
2018-09-23T02:02:14.648Z,1009.92
2018-09-23T02:03:23.553Z,1009.91
2018-09-23T02:04:32.198Z,1009.87
2018-09-23T02:05:41.105Z,1009.93
2018-09-23T02:06:50.008Z,1009.93
2018-09-23T02:07:58.654Z,1009.92
2018-09-23T02:09:07.290Z,1009.89
2018-09-23T02:10:15.943Z,1009.86
2018-09-23T02:11:24.577Z,1009.87
2018-09-23T02:12:33.220Z,1009.84
2018-09-23T02:13:41.852Z,1009.86
2018-09-23T02:14:50.502Z,1009.89
2018-09-23T02:15:59.138Z,1009.82
2018-09-23T02:17:07.780Z,1009.84
2018-09-23T02:18:16.687Z,1009.82
2018-09-23T02:19:25.333Z,1009.8
2018-09-23T02:20:33.972Z,1009.73
2018-09-23T02:21:42.877Z,1009.7
2018-09-23T02:22:51.796Z,1009.73
2018-09-23T02:24:00.436Z,1009.7
2018-09-23T02:25:09.088Z,1009.71
2018-09-23T02:26:17.987Z,1009.72
2018-09-23T02:27:26.635Z,1009.68
2018-09-23T02:28:35.266Z,1009.66
2018-09-23T02:29:44.452Z,1009.64
2018-09-23T02:30:53.089Z,1009.62
2018-09-23T02:32:02.019Z,1009.59
2018-09-23T02:33:10.652Z,1009.57
2018-09-23T02:34:19.306Z,1009.55
2018-09-23T02:35:28.213Z,1009.53
2018-09-23T02:36:37.120Z,1009.52
2018-09-23T02:37:45.757Z,1009.51
2018-09-23T02:38:54.665Z,1009.56
2018-09-23T02:40:03.354Z,1009.52
2018-09-23T02:41:12.794Z,1009.5
2018-09-23T02:42:21.972Z,1009.48
2018-09-23T02:43:31.130Z,1009.39
2018-09-23T02:44:40.042Z,1009.35
2018-09-23T02:45:48.681Z,1009.3
2018-09-23T02:46:57.331Z,1009.27
2018-09-23T02:48:05.967Z,1009.28
2018-09-23T02:49:14.612Z,1009.25
2018-09-23T02:50:23.512Z,1009.27
2018-09-23T02:51:32.162Z,1009.3
2018-09-23T02:52:41.056Z,1009.28
2018-09-23T02:53:49.700Z,1009.25
2018-09-23T02:54:58.609Z,1009.18
2018-09-23T02:56:07.260Z,1009.16
2018-09-23T02:57:15.900Z,1009.17
2018-09-23T02:58:24.802Z,1009.17
2018-09-23T02:59:33.449Z,1009.16
2018-09-23T03:00:42.088Z,1009.16
2018-09-23T03:01:51.269Z,1009.16
2018-09-23T03:03:00.716Z,1009.11
2018-09-23T03:04:09.360Z,1009.04
2018-09-23T03:05:17.998Z,1009.03
2018-09-23T03:06:26.917Z,1009.03
2018-09-23T03:07:35.566Z,1009.07
2018-09-23T03:08:44.474Z,1009.08
2018-09-23T03:09:53.112Z,1009.07
2018-09-23T03:11:01.758Z,1009.03
2018-09-23T03:12:10.938Z,1009.01
2018-09-23T03:13:19.581Z,1008.96
2018-09-23T03:14:28.222Z,1008.92
2018-09-23T03:15:37.127Z,1008.99
2018-09-23T03:16:45.769Z,1009
2018-09-23T03:17:54.480Z,1009.01
2018-09-23T03:19:03.062Z,1008.99
2018-09-23T03:20:11.695Z,1008.94
2018-09-23T03:21:20.337Z,1008.95
2018-09-23T03:22:29.244Z,1008.89
2018-09-23T03:23:38.156Z,1008.88
2018-09-23T03:24:46.798Z,1008.91
2018-09-23T03:25:55.437Z,1008.88
2018-09-23T03:27:04.078Z,1008.88
2018-09-23T03:28:12.726Z,1008.84
2018-09-23T03:29:21.368Z,1008.83
2018-09-23T03:30:30.296Z,1008.81
2018-09-23T03:31:38.956Z,1008.87
2018-09-23T03:32:47.611Z,1008.85
2018-09-23T03:33:56.267Z,1008.88
2018-09-23T03:35:04.896Z,1008.88
2018-09-23T03:36:13.798Z,1008.9
2018-09-23T03:37:22.436Z,1008.77
2018-09-23T03:38:31.348Z,1008.73
2018-09-23T03:39:39.994Z,1008.66
2018-09-23T03:40:48.899Z,1008.6
2018-09-23T03:41:57.536Z,1008.61
2018-09-23T03:43:06.187Z,1008.64
2018-09-23T03:44:15.086Z,1008.6
2018-09-23T03:45:23.725Z,1008.58
2018-09-23T03:46:32.367Z,1008.54
2018-09-23T03:47:41.271Z,1008.53
2018-09-23T03:48:49.916Z,1008.56
2018-09-23T03:49:58.565Z,1008.5
2018-09-23T03:51:07.215Z,1008.46
2018-09-23T03:52:15.850Z,1008.47
2018-09-23T03:53:24.491Z,1008.43
2018-09-23T03:54:33.397Z,1008.41
2018-09-23T03:55:42.568Z,1008.36
2018-09-23T03:56:51.463Z,1008.31
2018-09-23T03:58:00.144Z,1008.22
2018-09-23T03:59:08.753Z,1008.16
2018-09-23T04:00:17.665Z,1008.12
2018-09-23T04:01:26.304Z,1008.03
2018-09-23T04:02:34.945Z,1007.95
2018-09-23T04:03:43.586Z,1007.96
2018-09-23T04:04:52.238Z,1008
2018-09-23T04:06:00.886Z,1008.04
2018-09-23T04:07:09.804Z,1007.99
2018-09-23T04:08:18.444Z,1007.99
2018-09-23T04:09:27.352Z,1008
2018-09-23T04:10:35.996Z,1007.99
2018-09-23T04:11:44.651Z,1008.01
2018-09-23T04:12:53.296Z,1008.05
2018-09-23T04:14:01.934Z,1008.14
2018-09-23T04:15:10.585Z,1008.13
2018-09-23T04:16:19.236Z,1008.17
2018-09-23T04:17:27.875Z,1008.14
2018-09-23T04:18:36.775Z,1008.18
2018-09-23T04:19:45.421Z,1008.16
2018-09-23T04:20:54.063Z,1008.15
2018-09-23T04:22:02.704Z,1008.18
2018-09-23T04:23:11.346Z,1008.21
2018-09-23T04:24:19.990Z,1008.19
2018-09-23T04:25:28.635Z,1008.18
2018-09-23T04:26:37.541Z,1008.18
2018-09-23T04:27:46.177Z,1008.06
2018-09-23T04:28:54.821Z,1008.06
2018-09-23T04:30:03.467Z,1007.99
2018-09-23T04:31:12.111Z,1007.93
2018-09-23T04:32:20.757Z,1007.95
2018-09-23T04:33:29.395Z,1007.92
2018-09-23T04:34:38.046Z,1007.86
2018-09-23T04:35:46.689Z,1007.8
2018-09-23T04:36:55.332Z,1007.87
2018-09-23T04:38:03.969Z,1007.87
2018-09-23T04:39:12.613Z,1007.95
2018-09-23T04:40:21.255Z,1008.01
2018-09-23T04:41:29.901Z,1008.08
2018-09-23T04:42:39.341Z,1008.09
2018-09-23T04:43:47.994Z,1008.09
2018-09-23T04:44:56.687Z,1008.1
2018-09-23T04:46:05.748Z,1008.11
2018-09-23T04:47:14.646Z,1008.08
2018-09-23T04:48:23.290Z,1008.07
2018-09-23T04:49:31.928Z,1008.02
2018-09-23T04:50:40.569Z,1007.99
2018-09-23T04:51:49.219Z,1007.94
2018-09-23T04:52:58.120Z,1007.95
2018-09-23T04:54:06.760Z,1007.95
2018-09-23T04:55:15.435Z,1007.94
2018-09-23T04:56:24.394Z,1007.91
2018-09-23T04:57:33.036Z,1007.95
2018-09-23T04:58:41.938Z,1007.94
2018-09-23T04:59:50.575Z,1007.93
2018-09-23T05:00:59.227Z,1007.9
2018-09-23T05:02:07.867Z,1007.92
2018-09-23T05:03:16.774Z,1007.9
2018-09-23T05:04:25.410Z,1007.9
2018-09-23T05:05:34.051Z,1007.85
2018-09-23T05:06:42.696Z,1007.77
2018-09-23T05:07:51.599Z,1007.73
2018-09-23T05:09:00.504Z,1007.66
2018-09-23T05:10:09.136Z,1007.59
2018-09-23T05:11:17.780Z,1007.51
2018-09-23T05:12:26.415Z,1007.55
2018-09-23T05:13:35.065Z,1007.63
2018-09-23T05:14:43.697Z,1007.83
2018-09-23T05:15:52.607Z,1007.95
2018-09-23T05:17:01.510Z,1007.94
2018-09-23T05:18:10.165Z,1007.96
2018-09-23T05:19:18.794Z,1007.91
2018-09-23T05:20:27.703Z,1007.85
2018-09-23T05:21:36.357Z,1007.83
2018-09-23T05:22:45.267Z,1007.8
2018-09-23T05:23:53.908Z,1007.82
2018-09-23T05:25:02.556Z,1007.82
2018-09-23T05:26:11.462Z,1007.85
2018-09-23T05:27:20.116Z,1007.86
2018-09-23T05:28:29.303Z,1007.93
2018-09-23T05:29:38.208Z,1007.93
2018-09-23T05:30:46.857Z,1007.9
2018-09-23T05:31:55.770Z,1007.83
2018-09-23T05:33:04.422Z,1007.81
2018-09-23T05:34:13.065Z,1007.76
2018-09-23T05:35:21.778Z,1007.77
2018-09-23T05:36:30.724Z,1007.75
2018-09-23T05:37:39.372Z,1007.8
2018-09-23T05:38:48.012Z,1007.81
2018-09-23T05:39:56.657Z,1007.84
2018-09-23T05:41:05.292Z,1007.84
2018-09-23T05:42:13.934Z,1007.8
2018-09-23T05:43:22.580Z,1007.81
2018-09-23T05:44:31.251Z,1007.83
2018-09-23T05:45:39.869Z,1007.84
2018-09-23T05:46:48.762Z,1007.86
2018-09-23T05:47:57.407Z,1007.89
2018-09-23T05:49:06.586Z,1007.88
2018-09-23T05:50:15.241Z,1007.77
2018-09-23T05:51:24.452Z,1007.64
2018-09-23T05:52:33.097Z,1007.61
2018-09-23T05:53:41.735Z,1007.54
2018-09-23T05:54:50.386Z,1007.43
2018-09-23T05:55:59.020Z,1007.41
2018-09-23T05:57:07.665Z,1007.4
2018-09-23T05:58:16.317Z,1007.43
2018-09-23T05:59:24.949Z,1007.41
2018-09-23T06:00:33.594Z,1007.42
2018-09-23T06:01:42.237Z,1007.45
2018-09-23T06:02:50.883Z,1007.44
2018-09-23T06:03:59.825Z,1007.41
2018-09-23T06:05:08.459Z,1007.38
2018-09-23T06:06:17.105Z,1007.3
2018-09-23T06:07:25.743Z,1007.27
2018-09-23T06:08:34.684Z,1007.28
2018-09-23T06:09:43.575Z,1007.28
2018-09-23T06:10:52.223Z,1007.31
2018-09-23T06:12:00.860Z,1007.33
2018-09-23T06:13:09.511Z,1007.39
2018-09-23T06:14:18.146Z,1007.37
2018-09-23T06:15:27.051Z,1007.5
2018-09-23T06:16:35.699Z,1007.61
2018-09-23T06:17:44.665Z,1007.7
2018-09-23T06:18:53.568Z,1007.72
2018-09-23T06:20:02.474Z,1007.64
2018-09-23T06:21:11.911Z,1007.58
2018-09-23T06:22:20.551Z,1007.54
2018-09-23T06:23:29.202Z,1007.53
2018-09-23T06:24:37.844Z,1007.54
2018-09-23T06:25:46.487Z,1007.5
2018-09-23T06:26:55.121Z,1007.54
2018-09-23T06:28:03.772Z,1007.53
2018-09-23T06:29:12.409Z,1007.52
2018-09-23T06:30:21.057Z,1007.53
2018-09-23T06:31:29.958Z,1007.52
2018-09-23T06:32:38.613Z,1007.49
2018-09-23T06:33:47.254Z,1007.43
2018-09-23T06:34:55.899Z,1007.36
2018-09-23T06:36:04.535Z,1007.3
2018-09-23T06:37:13.444Z,1007.29
2018-09-23T06:38:22.093Z,1007.28
2018-09-23T06:39:30.738Z,1007.34
2018-09-23T06:40:39.384Z,1007.36
2018-09-23T06:41:48.018Z,1007.37
2018-09-23T06:42:56.661Z,1007.29
2018-09-23T06:44:05.301Z,1007.22
2018-09-23T06:45:13.951Z,1007.16
2018-09-23T06:46:22.581Z,1007.13
2018-09-23T06:47:31.221Z,1007.13
2018-09-23T06:48:39.857Z,1007.17
2018-09-23T06:49:48.507Z,1007.18
2018-09-23T06:50:57.174Z,1007.26
2018-09-23T06:52:05.780Z,1007.27
2018-09-23T06:53:14.421Z,1007.32
2018-09-23T06:54:23.071Z,1007.37
2018-09-23T06:55:31.710Z,1007.36
2018-09-23T06:56:40.349Z,1007.46
2018-09-23T06:57:48.984Z,1007.47
2018-09-23T06:58:57.622Z,1007.49
2018-09-23T07:00:06.274Z,1007.53
2018-09-23T07:01:15.179Z,1007.54
2018-09-23T07:02:23.820Z,1007.47
2018-09-23T07:03:32.457Z,1007.45
2018-09-23T07:04:41.249Z,1007.41
2018-09-23T07:05:49.762Z,1007.39
2018-09-23T07:06:58.402Z,1007.33
2018-09-23T07:08:07.040Z,1007.19
2018-09-23T07:09:15.687Z,1007.17
2018-09-23T07:10:24.605Z,1007.14
2018-09-23T07:11:33.234Z,1007.15
2018-09-23T07:12:41.876Z,1007.12
2018-09-23T07:13:50.521Z,1007.12
2018-09-23T07:14:59.162Z,1007.15
2018-09-23T07:16:08.071Z,1007.19
2018-09-23T07:17:16.714Z,1007.18
2018-09-23T07:18:25.352Z,1007.22
2018-09-23T07:19:33.997Z,1007.21
2018-09-23T07:20:42.645Z,1007.2
2018-09-23T07:21:51.291Z,1007.23
2018-09-23T07:22:59.933Z,1007.19
2018-09-23T07:24:08.634Z,1007.23
2018-09-23T07:25:17.577Z,1007.22
2018-09-23T07:26:26.487Z,1007.14
2018-09-23T07:27:35.125Z,1007.1
2018-09-23T07:28:43.772Z,1007.15
2018-09-23T07:29:52.418Z,1007.18
2018-09-23T07:31:01.458Z,1007.2
2018-09-23T07:32:10.097Z,1007.19
2018-09-23T07:33:18.738Z,1007.12
2018-09-23T07:34:27.375Z,1007.06
2018-09-23T07:35:36.016Z,1007.01
2018-09-23T07:36:44.703Z,1006.96
2018-09-23T07:37:53.311Z,1006.94
2018-09-23T07:39:01.951Z,1007.04
2018-09-23T07:40:10.590Z,1007.02
2018-09-23T07:41:19.242Z,1007
2018-09-23T07:42:27.876Z,1006.98
2018-09-23T07:43:36.518Z,1006.92
2018-09-23T07:44:45.158Z,1006.88
2018-09-23T07:45:53.803Z,1006.83
2018-09-23T07:47:02.443Z,1006.82
2018-09-23T07:48:11.398Z,1006.77
2018-09-23T07:49:20.397Z,1006.8
2018-09-23T07:50:29.041Z,1006.71
2018-09-23T07:51:37.687Z,1006.7
2018-09-23T07:52:46.337Z,1006.69
2018-09-23T07:53:54.981Z,1006.66
2018-09-23T07:55:03.618Z,1006.65
2018-09-23T07:56:12.270Z,1006.63
2018-09-23T07:57:21.450Z,1006.65
2018-09-23T07:58:30.103Z,1006.64
2018-09-23T07:59:39.000Z,1006.61
2018-09-23T08:00:47.917Z,1006.66
2018-09-23T08:01:56.560Z,1006.69
2018-09-23T08:03:05.214Z,1006.74
2018-09-23T08:04:13.845Z,1006.82
2018-09-23T08:05:22.490Z,1006.82
2018-09-23T08:06:31.135Z,1006.82
2018-09-23T08:07:40.054Z,1006.77
2018-09-23T08:08:48.695Z,1006.74
2018-09-23T08:09:57.334Z,1006.7
2018-09-23T08:11:05.981Z,1006.76
2018-09-23T08:12:14.688Z,1006.76
2018-09-23T08:13:23.396Z,1006.75
2018-09-23T08:14:32.422Z,1006.7
2018-09-23T08:15:40.562Z,1006.65
2018-09-23T08:16:49.197Z,1006.63
2018-09-23T08:17:57.848Z,1006.65
2018-09-23T08:19:06.490Z,1006.64
2018-09-23T08:20:15.239Z,1006.66
2018-09-23T08:21:23.882Z,1006.63
2018-09-23T08:22:32.425Z,1006.6
2018-09-23T08:23:41.064Z,1006.56
2018-09-23T08:24:49.981Z,1006.53
2018-09-23T08:25:58.622Z,1006.46
2018-09-23T08:27:07.265Z,1006.48
2018-09-23T08:28:16.177Z,1006.45
2018-09-23T08:29:24.820Z,1006.4
2018-09-23T08:30:33.466Z,1006.44
2018-09-23T08:31:42.100Z,1006.37
2018-09-23T08:32:50.786Z,1006.35
2018-09-23T08:33:59.382Z,1006.35
2018-09-23T08:35:08.033Z,1006.28
2018-09-23T08:36:16.669Z,1006.3
2018-09-23T08:37:25.365Z,1006.38
2018-09-23T08:38:33.952Z,1006.35
2018-09-23T08:39:42.926Z,1006.32
2018-09-23T08:40:51.505Z,1006.31
2018-09-23T08:42:00.155Z,1006.3
2018-09-23T08:43:08.835Z,1006.26
2018-09-23T08:44:17.766Z,1006.29
2018-09-23T08:45:26.407Z,1006.34
2018-09-23T08:46:35.045Z,1006.34
2018-09-23T08:47:43.695Z,1006.28
2018-09-23T08:48:52.332Z,1006.3
2018-09-23T08:50:00.989Z,1006.25
2018-09-23T08:51:09.889Z,1006.26
2018-09-23T08:52:18.663Z,1006.29
2018-09-23T08:53:27.170Z,1006.33
2018-09-23T08:54:36.091Z,1006.36
2018-09-23T08:55:44.732Z,1006.35
2018-09-23T08:56:53.637Z,1006.28
2018-09-23T08:58:02.275Z,1006.17
2018-09-23T08:59:10.929Z,1006.16
2018-09-23T09:00:19.564Z,1006.2
2018-09-23T09:01:28.472Z,1006.19
2018-09-23T09:02:37.113Z,1006.2
2018-09-23T09:03:45.810Z,1006.12
2018-09-23T09:04:55.032Z,1006.08
2018-09-23T09:06:03.676Z,1006.07
2018-09-23T09:07:12.325Z,1006.04
2018-09-23T09:08:21.227Z,1006.07
2018-09-23T09:09:29.872Z,1006.09
2018-09-23T09:10:38.791Z,1006.02
2018-09-23T09:11:47.468Z,1006.01
2018-09-23T09:12:56.078Z,1005.96
2018-09-23T09:14:04.725Z,1005.94
2018-09-23T09:15:13.365Z,1005.9
2018-09-23T09:16:22.013Z,1005.92
2018-09-23T09:17:30.659Z,1005.97
2018-09-23T09:18:39.730Z,1005.93
2018-09-23T09:19:48.211Z,1005.89
2018-09-23T09:20:56.860Z,1005.86
2018-09-23T09:22:05.497Z,1005.85
2018-09-23T09:23:14.141Z,1005.92
2018-09-23T09:24:22.786Z,1005.92
2018-09-23T09:25:31.422Z,1005.9
2018-09-23T09:26:40.094Z,1005.83
2018-09-23T09:27:49.379Z,1005.73
2018-09-23T09:28:58.287Z,1005.67
2018-09-23T09:30:06.925Z,1005.62
2018-09-23T09:31:15.578Z,1005.57
2018-09-23T09:32:24.218Z,1005.48
2018-09-23T09:33:32.860Z,1005.39
2018-09-23T09:34:41.500Z,1005.33
2018-09-23T09:35:50.415Z,1005.3
2018-09-23T09:36:59.056Z,1005.26
2018-09-23T09:38:07.702Z,1005.31
2018-09-23T09:39:16.340Z,1005.35
2018-09-23T09:40:24.983Z,1005.39
2018-09-23T09:41:33.626Z,1005.39
2018-09-23T09:42:42.271Z,1005.42
2018-09-23T09:43:50.953Z,1005.39
2018-09-23T09:44:59.835Z,1005.39
2018-09-23T09:46:08.479Z,1005.31
2018-09-23T09:47:17.120Z,1005.29
2018-09-23T09:48:25.773Z,1005.31
2018-09-23T09:49:34.406Z,1005.29
2018-09-23T09:50:43.050Z,1005.29
2018-09-23T09:51:51.692Z,1005.28
2018-09-23T09:53:00.600Z,1005.25
2018-09-23T09:54:09.521Z,1005.27
2018-09-23T09:55:18.532Z,1005.3
2018-09-23T09:56:27.068Z,1005.27
2018-09-23T09:57:35.707Z,1005.25
2018-09-23T09:58:44.355Z,1005.24
2018-09-23T09:59:52.995Z,1005.22
2018-09-23T10:01:01.639Z,1005.25
2018-09-23T10:02:10.287Z,1005.23
2018-09-23T10:03:18.924Z,1005.22
2018-09-23T10:04:27.570Z,1005.17
2018-09-23T10:05:36.216Z,1005.23
2018-09-23T10:06:44.862Z,1005.25
2018-09-23T10:07:53.497Z,1005.3
2018-09-23T10:09:02.139Z,1005.3
2018-09-23T10:10:10.780Z,1005.36
2018-09-23T10:11:19.444Z,1005.38
2018-09-23T10:12:28.359Z,1005.36
2018-09-23T10:13:37.002Z,1005.39
2018-09-23T10:14:45.642Z,1005.42
2018-09-23T10:15:54.572Z,1005.41
2018-09-23T10:17:03.212Z,1005.39
2018-09-23T10:18:11.855Z,1005.36
2018-09-23T10:19:20.495Z,1005.3
2018-09-23T10:20:29.136Z,1005.1
2018-09-23T10:21:37.783Z,1004.94
2018-09-23T10:22:46.508Z,1004.81
2018-09-23T10:23:55.573Z,1004.83
2018-09-23T10:25:04.478Z,1004.91
2018-09-23T10:26:13.393Z,1004.95
2018-09-23T10:27:22.036Z,1005.01
2018-09-23T10:28:30.680Z,1005
2018-09-23T10:29:39.321Z,1005.03
2018-09-23T10:30:47.962Z,1004.99
2018-09-23T10:31:56.932Z,1005.01
2018-09-23T10:33:05.567Z,1004.97
2018-09-23T10:34:14.212Z,1004.99
2018-09-23T10:35:23.393Z,1004.99
2018-09-23T10:36:32.029Z,1005.12
2018-09-23T10:37:40.676Z,1005.15
2018-09-23T10:38:49.321Z,1005.17
2018-09-23T10:39:58.228Z,1005.26
2018-09-23T10:41:06.910Z,1005.35
2018-09-23T10:42:15.511Z,1005.41
2018-09-23T10:43:24.155Z,1005.48
2018-09-23T10:44:32.793Z,1005.54
2018-09-23T10:45:41.441Z,1005.59
2018-09-23T10:46:50.084Z,1005.64
2018-09-23T10:47:58.729Z,1005.59
2018-09-23T10:49:07.369Z,1005.53
2018-09-23T10:50:16.015Z,1005.52
2018-09-23T10:51:24.655Z,1005.47
2018-09-23T10:52:33.303Z,1005.35
2018-09-23T10:53:41.946Z,1005.26
2018-09-23T10:54:50.581Z,1005.12
2018-09-23T10:55:59.221Z,1005.05
2018-09-23T10:57:08.124Z,1005.01
2018-09-23T10:58:16.778Z,1005
2018-09-23T10:59:25.474Z,1004.97
2018-09-23T11:00:34.433Z,1004.99
2018-09-23T11:01:43.592Z,1004.93
2018-09-23T11:02:52.243Z,1004.89
2018-09-23T11:04:00.912Z,1004.85
2018-09-23T11:05:09.540Z,1004.88
2018-09-23T11:06:18.436Z,1004.82
2018-09-23T11:07:27.197Z,1004.73
2018-09-23T11:08:36.086Z,1004.67
2018-09-23T11:09:44.798Z,1004.66
2018-09-23T11:10:53.788Z,1004.7
2018-09-23T11:12:02.696Z,1004.71
2018-09-23T11:13:11.341Z,1004.68
2018-09-23T11:14:19.982Z,1004.72
2018-09-23T11:15:28.630Z,1004.69
2018-09-23T11:16:37.261Z,1004.7
2018-09-23T11:17:45.908Z,1004.67
2018-09-23T11:18:54.541Z,1004.71
2018-09-23T11:20:03.461Z,1004.79
2018-09-23T11:21:12.087Z,1004.85
2018-09-23T11:22:20.732Z,1004.95
2018-09-23T11:23:29.388Z,1005
2018-09-23T11:24:38.640Z,1004.96
2018-09-23T11:25:47.826Z,1005.03
2018-09-23T11:26:56.466Z,1004.97
2018-09-23T11:28:05.104Z,1004.97
2018-09-23T11:29:13.756Z,1004.95
2018-09-23T11:30:22.396Z,1004.93
2018-09-23T11:31:31.034Z,1004.87
2018-09-23T11:32:39.673Z,1004.86
2018-09-23T11:33:48.312Z,1004.83
2018-09-23T11:34:56.961Z,1004.84
2018-09-23T11:36:05.600Z,1004.77
2018-09-23T11:37:14.246Z,1004.71
2018-09-23T11:38:23.139Z,1004.64
2018-09-23T11:39:32.051Z,1004.58
2018-09-23T11:40:40.692Z,1004.5
2018-09-23T11:41:49.333Z,1004.52
2018-09-23T11:42:58.034Z,1004.41
2018-09-23T11:44:06.613Z,1004.31
2018-09-23T11:45:15.249Z,1004.26
2018-09-23T11:46:23.894Z,1004.28
2018-09-23T11:47:32.532Z,1004.24
2018-09-23T11:48:41.177Z,1004.22
2018-09-23T11:49:49.822Z,1004.28
2018-09-23T11:50:58.461Z,1004.24
2018-09-23T11:52:07.099Z,1004.24
2018-09-23T11:53:15.743Z,1004.21
2018-09-23T11:54:24.655Z,1004.22
2018-09-23T11:55:33.616Z,1004.25
2018-09-23T11:56:42.197Z,1004.2
2018-09-23T11:57:51.273Z,1004.15
2018-09-23T11:58:59.920Z,1004.14
2018-09-23T12:00:08.559Z,1004.15
2018-09-23T12:01:17.727Z,1004.15
2018-09-23T12:02:26.370Z,1004.16
2018-09-23T12:03:35.007Z,1004.19
2018-09-23T12:04:43.652Z,1004.23
2018-09-23T12:05:52.290Z,1004.25
2018-09-23T12:07:01.193Z,1004.3
2018-09-23T12:08:09.835Z,1004.39
2018-09-23T12:09:18.479Z,1004.43
2018-09-23T12:10:27.207Z,1004.36
2018-09-23T12:11:35.756Z,1004.32
2018-09-23T12:12:44.677Z,1004.34
2018-09-23T12:13:53.317Z,1004.28
2018-09-23T12:15:02.228Z,1004.34
2018-09-23T12:16:11.396Z,1004.33
2018-09-23T12:17:20.304Z,1004.29
2018-09-23T12:18:28.942Z,1004.09
2018-09-23T12:19:37.590Z,1003.91
2018-09-23T12:20:46.229Z,1003.69
2018-09-23T12:21:54.875Z,1003.5
2018-09-23T12:23:03.780Z,1003.32
2018-09-23T12:24:12.424Z,1003.19
2018-09-23T12:25:21.076Z,1003.09
2018-09-23T12:26:30.054Z,1003.12
2018-09-23T12:27:38.692Z,1003.04
2018-09-23T12:28:47.335Z,1003
2018-09-23T12:29:55.976Z,1002.98
2018-09-23T12:31:04.617Z,1003.05
2018-09-23T12:32:13.262Z,1003.06
2018-09-23T12:33:22.021Z,1003.19
2018-09-23T12:34:30.547Z,1003.32
2018-09-23T12:35:39.446Z,1003.37
2018-09-23T12:36:48.082Z,1003.46
2018-09-23T12:37:56.718Z,1003.6
2018-09-23T12:39:05.628Z,1003.73
2018-09-23T12:40:14.272Z,1003.89
2018-09-23T12:41:23.177Z,1004.09
2018-09-23T12:42:31.811Z,1004.29
2018-09-23T12:43:40.458Z,1004.51
2018-09-23T12:44:49.100Z,1004.68
2018-09-23T12:45:57.786Z,1004.8
2018-09-23T12:47:06.381Z,1004.85
2018-09-23T12:48:15.023Z,1004.88
2018-09-23T12:49:23.662Z,1004.83
2018-09-23T12:50:32.298Z,1004.74
2018-09-23T12:51:40.948Z,1004.61
2018-09-23T12:52:49.580Z,1004.53
2018-09-23T12:53:58.223Z,1004.48
2018-09-23T12:55:07.130Z,1004.45
2018-09-23T12:56:15.777Z,1004.4
2018-09-23T12:57:24.997Z,1004.35
2018-09-23T12:58:33.583Z,1004.37
2018-09-23T12:59:42.491Z,1004.44
2018-09-23T13:00:51.141Z,1004.49
2018-09-23T13:01:59.784Z,1004.4
2018-09-23T13:03:08.421Z,1004.32
2018-09-23T13:04:17.062Z,1004.27
2018-09-23T13:05:25.697Z,1004.27
2018-09-23T13:06:34.350Z,1004.27
2018-09-23T13:07:42.987Z,1004.22
2018-09-23T13:08:51.633Z,1004.15
2018-09-23T13:10:00.276Z,1004.02
2018-09-23T13:11:09.189Z,1003.91
2018-09-23T13:12:17.827Z,1003.85
2018-09-23T13:13:26.516Z,1003.79
2018-09-23T13:14:35.102Z,1003.78
2018-09-23T13:15:43.753Z,1003.75
2018-09-23T13:16:52.653Z,1003.87
2018-09-23T13:18:01.597Z,1003.86
2018-09-23T13:19:10.194Z,1003.73
2018-09-23T13:20:19.101Z,1003.9
2018-09-23T13:21:27.747Z,1004.05
2018-09-23T13:22:36.392Z,1004.03
2018-09-23T13:23:45.034Z,1004.14
2018-09-23T13:24:53.668Z,1004.39
2018-09-23T13:26:02.312Z,1004.57
2018-09-23T13:27:10.950Z,1004.55
2018-09-23T13:28:19.598Z,1004.49
2018-09-23T13:29:28.230Z,1004.4
2018-09-23T13:30:36.873Z,1004.24
2018-09-23T13:31:45.510Z,1004.23
2018-09-23T13:32:54.161Z,1004.23
2018-09-23T13:34:02.794Z,1004.2
2018-09-23T13:35:11.436Z,1004.2
2018-09-23T13:36:20.076Z,1004.2
2018-09-23T13:37:28.727Z,1004.17
2018-09-23T13:38:37.369Z,1004.16
2018-09-23T13:39:46.006Z,1004.28
2018-09-23T13:40:54.665Z,1004.31
2018-09-23T13:42:03.565Z,1004.28
2018-09-23T13:43:12.215Z,1004.32
2018-09-23T13:44:20.850Z,1004.34
2018-09-23T13:45:29.497Z,1004.4
2018-09-23T13:46:38.202Z,1004.36
2018-09-23T13:47:47.036Z,1004.26
2018-09-23T13:48:55.681Z,1004.16
2018-09-23T13:50:04.591Z,1004.23
2018-09-23T13:51:13.244Z,1004.22
2018-09-23T13:52:21.876Z,1004.11
2018-09-23T13:53:30.519Z,1004.1
2018-09-23T13:54:39.164Z,1004.13